createdAt,value
2018-09-01T00:01:04.628Z,95194.68
2018-09-01T00:03:33.602Z,95186.00
2018-09-01T00:06:02.412Z,95198.05
2018-09-01T00:08:31.662Z,95191.36
2018-09-01T00:11:00.459Z,95190.87
2018-09-01T00:13:29.390Z,95200.63
2018-09-01T00:15:58.786Z,95206.89
2018-09-01T00:18:27.644Z,95209.23
2018-09-01T00:20:56.758Z,95206.59
2018-09-01T00:23:25.981Z,95205.75
2018-09-01T00:25:54.937Z,95204.37
2018-09-01T00:28:23.762Z,95207.82
2018-09-01T00:30:53.143Z,95211.59
2018-09-01T00:33:22.141Z,95213.02
2018-09-01T00:35:51.131Z,95208.98
2018-09-01T00:38:25.300Z,95195.30
2018-09-01T00:40:54.230Z,95218.05
2018-09-01T00:43:23.240Z,95219.34
2018-09-01T00:45:52.335Z,95212.25
2018-09-01T00:48:21.118Z,95214.91
2018-09-01T00:50:49.978Z,95212.35
2018-09-01T00:53:19.215Z,95211.10
2018-09-01T00:55:48.404Z,95208.58
2018-09-01T00:58:17.365Z,95211.32
2018-09-01T01:00:46.320Z,95212.41
2018-09-01T01:03:15.162Z,95218.00
2018-09-01T01:05:43.934Z,95208.38
2018-09-01T01:08:13.165Z,95213.97
2018-09-01T01:10:42.035Z,95209.44
2018-09-01T01:13:10.929Z,95214.10
2018-09-01T01:15:39.876Z,95214.37
2018-09-01T01:18:08.916Z,95210.42
2018-09-01T01:20:37.712Z,95197.95
2018-09-01T01:23:06.510Z,95213.15
2018-09-01T01:25:35.277Z,95215.90
2018-09-01T01:28:03.959Z,95202.77
2018-09-01T01:30:33.403Z,95210.47
2018-09-01T01:33:02.278Z,95213.48
2018-09-01T01:35:31.376Z,95209.44
2018-09-01T01:38:00.163Z,95216.42
2018-09-01T01:40:29.149Z,95209.61
2018-09-01T01:42:58.230Z,95216.80
2018-09-01T01:45:29.816Z,95213.62
2018-09-01T01:47:59.206Z,95217.84
2018-09-01T01:50:28.194Z,95210.77
2018-09-01T01:52:57.124Z,95215.45
2018-09-01T01:55:26.203Z,95218.47
2018-09-01T01:57:55.091Z,95218.20
2018-09-01T02:00:24.002Z,95219.23
2018-09-01T02:02:52.934Z,95218.73
2018-09-01T02:05:26.327Z,95216.20
2018-09-01T02:07:55.416Z,95224.67
2018-09-01T02:10:24.144Z,95220.38
2018-09-01T02:12:53.347Z,95230.63
2018-09-01T02:15:22.226Z,95223.55
2018-09-01T02:17:51.223Z,95215.34
2018-09-01T02:20:20.499Z,95214.95
2018-09-01T02:22:49.606Z,95222.16
2018-09-01T02:25:19.223Z,95219.88
2018-09-01T02:27:48.286Z,95215.61
2018-09-01T02:30:17.208Z,95210.55
2018-09-01T02:32:46.160Z,95218.14
2018-09-01T02:35:15.441Z,95217.64
2018-09-01T02:37:44.390Z,95213.22
2018-09-01T02:40:13.484Z,95213.06
2018-09-01T02:42:42.622Z,95206.13
2018-09-01T02:45:11.659Z,95212.33
2018-09-01T02:47:40.388Z,95206.52
2018-09-01T02:50:09.512Z,95211.18
2018-09-01T02:52:38.452Z,95210.80
2018-09-01T02:55:07.572Z,95214.34
2018-09-01T02:57:36.462Z,95208.91
2018-09-01T03:00:09.662Z,95210.94
2018-09-01T03:02:43.816Z,95210.55
2018-09-01T03:05:14.163Z,95215.23
2018-09-01T03:07:43.080Z,95208.80
2018-09-01T03:10:12.482Z,95212.56
2018-09-01T03:12:41.515Z,95209.39
2018-09-01T03:15:10.232Z,95207.13
2018-09-01T03:17:39.419Z,95209.52
2018-09-01T03:20:08.543Z,95215.70
2018-09-01T03:22:37.336Z,95211.80
2018-09-01T03:25:06.855Z,95225.56
2018-09-01T03:27:35.727Z,95224.69
2018-09-01T03:30:04.926Z,95220.39
2018-09-01T03:32:34.037Z,95225.08
2018-09-01T03:35:03.037Z,95228.23
2018-09-01T03:37:31.891Z,95233.60
2018-09-01T03:40:00.823Z,95235.11
2018-09-01T03:42:29.787Z,95237.50
2018-09-01T03:44:58.794Z,95233.97
2018-09-01T03:47:28.003Z,95236.89
2018-09-01T03:49:57.175Z,95243.04
2018-09-01T03:52:26.084Z,95241.90
2018-09-01T03:54:55.715Z,95246.93
2018-09-01T03:57:24.583Z,95249.48
2018-09-01T03:59:53.576Z,95250.38
2018-09-01T04:02:22.974Z,95252.77
2018-09-01T04:04:52.368Z,95260.98
2018-09-01T04:07:21.263Z,95260.27
2018-09-01T04:09:50.153Z,95252.36
2018-09-01T04:12:19.113Z,95264.59
2018-09-01T04:14:48.060Z,95266.06
2018-09-01T04:17:17.456Z,95268.43
2018-09-01T04:19:46.540Z,95263.36
2018-09-01T04:22:15.447Z,95268.92
2018-09-01T04:24:44.932Z,95268.01
2018-09-01T04:27:13.709Z,95267.23
2018-09-01T04:29:42.607Z,95263.61
2018-09-01T04:32:11.897Z,95255.67
2018-09-01T04:34:41.163Z,95266.63
2018-09-01T04:37:11.880Z,95257.67
2018-09-01T04:39:41.026Z,95255.30
2018-09-01T04:42:10.126Z,95251.32
2018-09-01T04:44:39.148Z,95256.81
2018-09-01T04:47:08.193Z,95251.28
2018-09-01T04:49:37.010Z,95245.52
2018-09-01T04:52:05.998Z,95248.95
2018-09-01T04:54:35.261Z,95245.27
2018-09-01T04:57:04.098Z,95248.24
2018-09-01T04:59:33.082Z,95248.87
2018-09-01T05:02:02.008Z,95251.80
2018-09-01T05:04:31.176Z,95248.93
2018-09-01T05:06:59.950Z,95246.31
2018-09-01T05:09:29.383Z,95250.89
2018-09-01T05:11:58.559Z,95240.88
2018-09-01T05:14:27.452Z,95241.85
2018-09-01T05:16:56.630Z,95245.72
2018-09-01T05:19:25.347Z,95234.77
2018-09-01T05:21:54.274Z,95238.89
2018-09-01T05:24:23.476Z,95232.91
2018-09-01T05:26:52.523Z,95242.67
2018-09-01T05:29:21.423Z,95246.14
2018-09-01T05:31:50.519Z,95239.58
2018-09-01T05:34:19.426Z,95243.86
2018-09-01T05:36:48.499Z,95248.34
2018-09-01T05:39:17.342Z,95241.58
2018-09-01T05:41:46.179Z,95239.36
2018-09-01T05:44:15.074Z,95237.94
2018-09-01T05:46:44.041Z,95239.52
2018-09-01T05:49:13.070Z,95244.76
2018-09-01T05:51:41.965Z,95233.30
2018-09-01T05:54:11.074Z,95241.58
2018-09-01T05:56:40.259Z,95246.51
2018-09-01T05:59:09.056Z,95255.98
2018-09-01T06:01:38.475Z,95249.50
2018-09-01T06:04:07.318Z,95251.56
2018-09-01T06:06:36.310Z,95242.69
2018-09-01T06:09:06.839Z,95251.77
2018-09-01T06:11:35.751Z,95247.59
2018-09-01T06:14:04.728Z,95241.85
2018-09-01T06:16:33.990Z,95248.24
2018-09-01T06:19:03.166Z,95250.52
2018-09-01T06:21:32.266Z,95254.49
2018-09-01T06:24:01.642Z,95252.22
2018-09-01T06:26:30.731Z,95251.23
2018-09-01T06:29:05.276Z,95246.45
2018-09-01T06:31:34.718Z,95250.47
2018-09-01T06:34:03.855Z,95255.33
2018-09-01T06:36:33.506Z,95258.73
2018-09-01T06:39:02.675Z,95251.59
2018-09-01T06:41:31.576Z,95262.58
2018-09-01T06:44:01.183Z,95263.44
2018-09-01T06:46:30.306Z,95265.27
2018-09-01T06:48:59.183Z,95268.42
2018-09-01T06:51:28.370Z,95268.30
2018-09-01T06:53:57.132Z,95264.89
2018-09-01T06:56:26.167Z,95267.77
2018-09-01T06:58:55.734Z,95263.07
2018-09-01T07:01:25.026Z,95266.69
2018-09-01T07:03:54.122Z,95256.79
2018-09-01T07:06:23.545Z,95263.06
2018-09-01T07:08:52.648Z,95260.13
2018-09-01T07:11:21.824Z,95263.02
2018-09-01T07:13:50.722Z,95266.58
2018-09-01T07:16:19.366Z,95271.33
2018-09-01T07:18:48.712Z,95270.77
2018-09-01T07:21:17.943Z,95262.02
2018-09-01T07:23:47.106Z,95256.80
2018-09-01T07:28:45.617Z,95260.45
2018-09-01T07:31:14.893Z,95253.52
2018-09-01T07:33:43.685Z,95254.91
2018-09-01T07:36:17.031Z,95257.98
2018-09-01T07:38:46.091Z,95253.26
2018-09-01T07:41:15.570Z,95261.88
2018-09-01T07:43:44.752Z,95260.05
2018-09-01T07:46:13.890Z,95260.34
2018-09-01T07:48:42.886Z,95267.86
2018-09-01T07:51:12.414Z,95260.23
2018-09-01T07:53:42.083Z,95257.95
2018-09-01T07:56:11.773Z,95254.79
2018-09-01T07:58:40.846Z,95252.52
2018-09-01T08:01:10.090Z,95247.15
2018-09-01T08:03:38.814Z,95246.59
2018-09-01T08:06:08.167Z,95239.25
2018-09-01T08:08:37.183Z,95240.77
2018-09-01T08:11:06.342Z,95240.08
2018-09-01T08:13:35.511Z,95242.06
2018-09-01T08:16:04.623Z,95237.95
2018-09-01T08:18:33.874Z,95236.22
2018-09-01T08:21:03.308Z,95237.25
2018-09-01T08:23:32.980Z,95237.32
2018-09-01T08:26:02.137Z,95237.92
2018-09-01T08:28:31.429Z,95234.84
2018-09-01T08:31:00.709Z,95232.30
2018-09-01T08:33:29.818Z,95235.97
2018-09-01T08:35:59.407Z,95230.73
2018-09-01T08:38:28.171Z,95227.79
2018-09-01T08:40:57.400Z,95226.56
2018-09-01T08:43:26.431Z,95234.41
2018-09-01T08:45:55.396Z,95229.42
2018-09-01T08:48:24.346Z,95223.02
2018-09-01T08:50:53.420Z,95222.09
2018-09-01T08:53:22.463Z,95219.10
2018-09-01T08:55:51.436Z,95215.76
2018-09-01T08:58:20.482Z,95218.26
2018-09-01T09:00:49.351Z,95217.86
2018-09-01T09:03:18.234Z,95215.25
2018-09-01T09:05:47.272Z,95219.09
2018-09-01T09:08:16.367Z,95217.88
2018-09-01T09:10:45.333Z,95212.42
2018-09-01T09:13:14.802Z,95207.84
2018-09-01T09:15:43.836Z,95212.77
2018-09-01T09:18:13.023Z,95213.26
2018-09-01T09:20:42.230Z,95207.53
2018-09-01T09:23:11.459Z,95209.23
2018-09-01T09:25:40.627Z,95204.67
2018-09-01T09:28:09.615Z,95215.84
2018-09-01T09:30:38.611Z,95206.08
2018-09-01T09:33:07.803Z,95211.75
2018-09-01T09:35:36.738Z,95204.58
2018-09-01T09:38:05.792Z,95208.83
2018-09-01T09:40:35.123Z,95208.36
2018-09-01T09:43:04.383Z,95211.01
2018-09-01T09:45:33.596Z,95212.33
2018-09-01T09:48:02.887Z,95214.25
2018-09-01T09:50:31.995Z,95208.48
2018-09-01T09:53:01.057Z,95206.96
2018-09-01T09:55:30.126Z,95206.08
2018-09-01T09:57:59.067Z,95211.34
2018-09-01T10:01:32.831Z,95207.63
2018-09-01T10:04:02.390Z,95210.34
2018-09-01T10:06:31.411Z,95211.49
2018-09-01T10:09:00.942Z,95207.56
2018-09-01T10:11:29.823Z,95206.03
2018-09-01T10:13:59.012Z,95207.55
2018-09-01T10:16:28.411Z,95209.48
2018-09-01T10:18:57.918Z,95200.05
2018-09-01T10:21:26.922Z,95201.75
2018-09-01T10:23:55.939Z,95194.35
2018-09-01T10:26:25.230Z,95198.90
2018-09-01T10:28:54.417Z,95192.22
2018-09-01T10:31:24.387Z,95188.14
2018-09-01T10:33:53.432Z,95193.46
2018-09-01T10:36:22.737Z,95187.69
2018-09-01T10:38:51.971Z,95182.44
2018-09-01T10:41:21.350Z,95173.86
2018-09-01T10:43:50.360Z,95177.89
2018-09-01T10:46:19.639Z,95167.20
2018-09-01T10:48:48.674Z,95174.27
2018-09-01T10:51:17.746Z,95169.05
2018-09-01T10:53:46.783Z,95157.31
2018-09-01T10:56:15.561Z,95159.30
2018-09-01T10:58:44.296Z,95162.58
2018-09-01T11:01:13.392Z,95157.98
2018-09-01T11:03:42.281Z,95164.70
2018-09-01T11:06:11.367Z,95156.83
2018-09-01T11:08:40.400Z,95157.05
2018-09-01T11:11:09.369Z,95156.97
2018-09-01T11:13:38.474Z,95159.52
2018-09-01T11:16:07.510Z,95151.23
2018-09-01T11:18:36.773Z,95163.44
2018-09-01T11:21:05.643Z,95155.30
2018-09-01T11:23:34.779Z,95154.47
2018-09-01T11:26:03.872Z,95157.55
2018-09-01T11:28:33.057Z,95156.38
2018-09-01T11:31:02.603Z,95156.26
2018-09-01T11:33:31.593Z,95154.56
2018-09-01T11:36:00.531Z,95148.48
2018-09-01T11:38:30.022Z,95137.42
2018-09-01T11:40:59.226Z,95145.05
2018-09-01T11:43:28.223Z,95145.13
2018-09-01T11:45:57.558Z,95132.36
2018-09-01T11:48:26.673Z,95131.98
2018-09-01T11:50:55.848Z,95132.40
2018-09-01T11:53:25.258Z,95127.20
2018-09-01T11:55:54.331Z,95122.86
2018-09-01T11:58:23.420Z,95132.17
2018-09-01T12:00:52.430Z,95130.14
2018-09-01T12:03:21.521Z,95124.34
2018-09-01T12:05:50.799Z,95116.50
2018-09-01T12:08:20.154Z,95107.63
2018-09-01T12:10:49.226Z,95120.33
2018-09-01T12:13:18.114Z,95115.41
2018-09-01T12:15:47.682Z,95115.01
2018-09-01T12:18:16.591Z,95113.65
2018-09-01T12:20:46.265Z,95105.28
2018-09-01T12:23:15.136Z,95118.59
2018-09-01T12:25:44.198Z,95117.91
2018-09-01T12:28:13.242Z,95119.52
2018-09-01T12:30:42.597Z,95106.64
2018-09-01T12:33:11.678Z,95112.30
2018-09-01T12:35:40.750Z,95107.81
2018-09-01T12:38:09.877Z,95101.38
2018-09-01T12:40:38.894Z,95106.29
2018-09-01T12:43:07.979Z,95107.84
2018-09-01T12:45:37.519Z,95111.19
2018-09-01T12:48:06.382Z,95099.23
2018-09-01T12:50:35.283Z,95108.45
2018-09-01T12:53:04.859Z,95101.17
2018-09-01T12:55:33.969Z,95102.06
2018-09-01T12:58:03.110Z,95102.78
2018-09-01T13:00:32.098Z,95094.89
2018-09-01T13:03:01.384Z,95101.61
2018-09-01T13:05:30.372Z,95087.27
2018-09-01T13:07:59.758Z,95086.18
2018-09-01T13:10:28.767Z,95085.09
2018-09-01T13:12:57.679Z,95084.55
2018-09-01T13:15:27.042Z,95083.75
2018-09-01T13:17:56.085Z,95073.52
2018-09-01T13:20:25.137Z,95071.20
2018-09-01T13:22:54.091Z,95076.52
2018-09-01T13:25:22.981Z,95077.09
2018-09-01T13:27:52.060Z,95078.07
2018-09-01T13:30:21.371Z,95072.89
2018-09-01T13:32:50.655Z,95070.06
2018-09-01T13:35:19.829Z,95078.42
2018-09-01T13:37:48.897Z,95066.95
2018-09-01T13:40:18.159Z,95063.52
2018-09-01T13:42:47.232Z,95066.21
2018-09-01T13:45:16.579Z,95065.14
2018-09-01T13:47:45.851Z,95066.54
2018-09-01T13:50:14.803Z,95060.94
2018-09-01T13:52:44.291Z,95067.82
2018-09-01T13:55:13.342Z,95065.77
2018-09-01T13:57:42.331Z,95067.13
2018-09-01T14:00:11.855Z,95063.59
2018-09-01T14:02:40.770Z,95064.44
2018-09-01T14:05:09.932Z,95065.82
2018-09-01T14:07:39.271Z,95079.29
2018-09-01T14:10:08.519Z,95078.11
2018-09-01T14:12:37.622Z,95066.61
2018-09-01T14:15:06.748Z,95072.72
2018-09-01T14:17:35.909Z,95074.13
2018-09-01T14:20:04.998Z,95076.34
2018-09-01T14:22:34.575Z,95075.25
2018-09-01T14:25:03.967Z,95067.36
2018-09-01T14:27:32.785Z,95072.31
2018-09-01T14:30:02.074Z,95066.12
2018-09-01T14:32:31.340Z,95073.38
2018-09-01T14:35:00.468Z,95073.45
2018-09-01T14:37:29.770Z,95073.39
2018-09-01T14:39:58.813Z,95080.92
2018-09-01T14:42:28.323Z,95071.20
2018-09-01T14:44:57.973Z,95059.77
2018-09-01T14:47:27.122Z,95072.61
2018-09-01T14:49:55.993Z,95074.92
2018-09-01T14:52:25.803Z,95073.64
2018-09-01T14:54:54.728Z,95069.91
2018-09-01T14:57:23.637Z,95066.28
2018-09-01T14:59:53.194Z,95082.03
2018-09-01T15:02:22.468Z,95068.75
2018-09-01T15:04:51.536Z,95068.20
2018-09-01T15:07:21.225Z,95075.38
2018-09-01T15:09:50.261Z,95088.72
2018-09-01T15:12:19.389Z,95089.41
2018-09-01T15:14:48.747Z,95076.38
2018-09-01T15:17:18.055Z,95078.86
2018-09-01T15:19:47.235Z,95081.21
2018-09-01T15:22:16.766Z,95077.22
2018-09-01T15:24:45.628Z,95080.22
2018-09-01T15:27:14.520Z,95078.20
2018-09-01T15:29:43.731Z,95084.01
2018-09-01T15:32:12.932Z,95081.65
2018-09-01T15:34:42.033Z,95079.58
2018-09-01T15:37:11.340Z,95085.64
2018-09-01T15:39:40.326Z,95078.97
2018-09-01T15:42:09.413Z,95083.55
2018-09-01T15:44:39.171Z,95084.44
2018-09-01T15:47:08.226Z,95082.50
2018-09-01T15:49:37.114Z,95099.71
2018-09-01T15:52:06.871Z,95088.55
2018-09-01T15:54:35.910Z,95099.72
2018-09-01T15:57:05.038Z,95089.09
2018-09-01T15:59:34.123Z,95091.05
2018-09-01T16:02:03.023Z,95093.03
2018-09-01T16:04:32.118Z,95095.69
2018-09-01T16:07:01.412Z,95095.40
2018-09-01T16:09:30.490Z,95094.64
2018-09-01T16:11:59.944Z,95094.59
2018-09-01T16:14:29.386Z,95099.47
2018-09-01T16:16:58.467Z,95092.86
2018-09-01T16:19:27.518Z,95093.91
2018-09-01T16:21:57.223Z,95094.50
2018-09-01T16:24:26.064Z,95101.02
2018-09-01T16:26:55.106Z,95092.66
2018-09-01T16:29:24.303Z,95093.62
2018-09-01T16:31:53.506Z,95089.52
2018-09-01T16:34:22.711Z,95090.92
2018-09-01T16:36:52.126Z,95091.44
2018-09-01T16:39:21.291Z,95096.31
2018-09-01T16:41:50.672Z,95104.95
2018-09-01T16:44:20.039Z,95097.81
2018-09-01T16:46:49.229Z,95097.83
2018-09-01T16:49:18.109Z,95083.89
2018-09-01T16:51:47.594Z,95106.22
2018-09-01T16:54:16.785Z,95103.59
2018-09-01T16:56:45.730Z,95105.75
2018-09-01T16:59:15.237Z,95101.17
2018-09-01T17:01:44.320Z,95105.50
2018-09-01T17:04:13.487Z,95107.33
2018-09-01T17:06:43.413Z,95110.73
2018-09-01T17:09:12.421Z,95109.60
2018-09-01T17:11:41.111Z,95110.16
2018-09-01T17:14:10.688Z,95117.94
2018-09-01T17:16:39.806Z,95120.67
2018-09-01T17:19:08.911Z,95120.48
2018-09-01T17:21:38.335Z,95126.09
2018-09-01T17:24:07.390Z,95131.70
2018-09-01T17:26:36.190Z,95131.23
2018-09-01T17:29:05.551Z,95133.66
2018-09-01T17:31:34.761Z,95137.50
2018-09-01T17:34:03.703Z,95136.47
2018-09-01T17:36:32.707Z,95144.73
2018-09-01T17:39:01.398Z,95141.73
2018-09-01T17:41:30.517Z,95139.27
2018-09-01T17:44:00.194Z,95146.41
2018-09-01T17:46:29.179Z,95146.59
2018-09-01T17:48:57.960Z,95149.02
2018-09-01T17:51:27.323Z,95145.22
2018-09-01T17:53:56.465Z,95147.64
2018-09-01T17:56:25.717Z,95153.06
2018-09-01T17:58:55.314Z,95150.25
2018-09-01T18:01:25.823Z,95154.08
2018-09-01T18:03:55.311Z,95149.97
2018-09-01T18:06:25.548Z,95151.81
2018-09-01T18:08:54.639Z,95153.30
2018-09-01T18:11:23.436Z,95154.59
2018-09-01T18:13:52.863Z,95156.08
2018-09-01T18:16:22.031Z,95165.05
2018-09-01T18:18:51.118Z,95164.01
2018-09-01T18:21:20.237Z,95164.94
2018-09-01T18:23:49.080Z,95165.30
2018-09-01T18:26:18.291Z,95167.03
2018-09-01T18:28:47.226Z,95172.25
2018-09-01T18:31:16.411Z,95173.02
2018-09-01T18:33:45.455Z,95174.66
2018-09-01T18:36:14.780Z,95177.14
2018-09-01T18:38:43.555Z,95179.54
2018-09-01T18:41:12.496Z,95179.36
2018-09-01T18:43:41.709Z,95177.03
2018-09-01T18:46:10.362Z,95181.30
2018-09-01T18:48:39.151Z,95186.97
2018-09-01T18:51:08.643Z,95184.75
2018-09-01T18:53:37.610Z,95191.81
2018-09-01T18:56:06.672Z,95188.49
2018-09-01T18:58:35.636Z,95193.05
2018-09-01T19:01:04.639Z,95187.98
2018-09-01T19:03:33.699Z,95192.32
2018-09-01T19:06:02.787Z,95194.41
2018-09-01T19:08:32.543Z,95193.72
2018-09-01T19:11:01.397Z,95195.99
2018-09-01T19:13:30.512Z,95200.50
2018-09-01T19:15:59.712Z,95198.26
2018-09-01T19:18:28.610Z,95197.91
2018-09-01T19:20:58.147Z,95197.05
2018-09-01T19:23:27.243Z,95202.77
2018-09-01T19:25:56.638Z,95206.31
2018-09-01T19:28:25.652Z,95196.92
2018-09-01T19:30:54.735Z,95198.33
2018-09-01T19:33:23.682Z,95197.59
2018-09-01T19:35:52.652Z,95197.46
2018-09-01T19:38:21.618Z,95193.14
2018-09-01T19:40:50.443Z,95195.80
2018-09-01T19:43:19.424Z,95192.47
2018-09-01T19:45:48.284Z,95193.01
2018-09-01T19:48:17.755Z,95198.31
2018-09-01T19:50:46.851Z,95197.59
2018-09-01T19:53:16.049Z,95198.28
2018-09-01T19:55:45.285Z,95197.75
2018-09-01T19:58:15.898Z,95199.07
2018-09-01T20:00:44.822Z,95190.05
2018-09-01T20:03:13.787Z,95192.28
2018-09-01T20:05:43.316Z,95190.33
2018-09-01T20:08:12.199Z,95196.23
2018-09-01T20:10:41.197Z,95183.63
2018-09-01T20:13:10.532Z,95186.23
2018-09-01T20:15:39.675Z,95184.83
2018-09-01T20:18:08.574Z,95191.20
2018-09-01T20:20:37.943Z,95188.09
2018-09-01T20:23:07.085Z,95190.39
2018-09-01T20:25:35.881Z,95195.35
2018-09-01T20:28:05.032Z,95186.08
2018-09-01T20:30:34.047Z,95185.84
2018-09-01T20:33:03.050Z,95186.63
2018-09-01T20:35:37.739Z,95186.97
2018-09-01T20:38:07.039Z,95191.84
2018-09-01T20:40:35.995Z,95181.72
2018-09-01T20:43:05.133Z,95190.45
2018-09-01T20:45:34.159Z,95192.48
2018-09-01T20:48:03.086Z,95196.03
2018-09-01T20:50:32.215Z,95193.34
2018-09-01T20:53:01.154Z,95189.48
2018-09-01T20:55:30.484Z,95190.90
2018-09-01T20:57:59.876Z,95191.31
2018-09-01T21:00:28.863Z,95191.63
2018-09-01T21:02:57.738Z,95184.33
2018-09-01T21:05:27.091Z,95191.74
2018-09-01T21:07:56.163Z,95190.14
2018-09-01T21:10:25.025Z,95189.06
2018-09-01T21:12:54.064Z,95186.28
2018-09-01T21:15:22.836Z,95191.34
2018-09-01T21:17:51.729Z,95195.87
2018-09-01T21:20:20.777Z,95192.98
2018-09-01T21:22:50.193Z,95194.36
2018-09-01T21:25:20.138Z,95192.86
2018-09-01T21:27:49.352Z,95189.72
2018-09-01T21:30:18.472Z,95195.94
2018-09-01T21:32:47.339Z,95187.03
2018-09-01T21:35:16.766Z,95178.17
2018-09-01T21:37:45.727Z,95181.81
2018-09-01T21:40:15.170Z,95183.08
2018-09-01T21:42:44.695Z,95181.16
2018-09-01T21:45:14.256Z,95183.31
2018-09-01T21:47:43.761Z,95188.42
2018-09-01T21:50:12.980Z,95186.96
2018-09-01T21:52:41.824Z,95192.01
2018-09-01T21:55:10.531Z,95189.71
2018-09-01T21:57:39.643Z,95191.72
2018-09-01T22:00:09.758Z,95190.17
2018-09-01T22:02:38.748Z,95191.52
2018-09-01T22:05:13.477Z,95189.97
2018-09-01T22:07:42.389Z,95188.11
2018-09-01T22:10:11.783Z,95192.70
2018-09-01T22:12:41.211Z,95187.20
2018-09-01T22:15:10.333Z,95191.33
2018-09-01T22:17:39.470Z,95195.35
2018-09-01T22:20:08.714Z,95200.59
2018-09-01T22:22:37.976Z,95189.44
2018-09-01T22:25:07.110Z,95199.08
2018-09-01T22:27:36.546Z,95195.91
2018-09-01T22:30:05.799Z,95202.77
2018-09-01T22:32:34.985Z,95204.87
2018-09-01T22:35:04.927Z,95204.98
2018-09-01T22:37:33.894Z,95207.44
2018-09-01T22:40:03.067Z,95207.50
2018-09-01T22:42:32.837Z,95207.03
2018-09-01T22:45:01.903Z,95200.98
2018-09-01T22:47:32.277Z,95205.58
2018-09-01T22:50:01.635Z,95205.20
2018-09-01T22:52:30.713Z,95204.98
2018-09-01T22:54:59.787Z,95207.80
2018-09-01T22:57:28.832Z,95208.91
2018-09-01T22:59:58.113Z,95209.38
2018-09-01T23:02:27.291Z,95212.20
2018-09-01T23:04:56.482Z,95213.87
2018-09-01T23:07:25.498Z,95213.40
2018-09-01T23:09:54.397Z,95220.77
2018-09-01T23:12:23.819Z,95218.17
2018-09-01T23:14:52.474Z,95217.81
2018-09-01T23:17:21.386Z,95214.32
2018-09-01T23:19:50.741Z,95214.05
2018-09-01T23:22:19.679Z,95214.32
2018-09-01T23:24:48.354Z,95224.85
2018-09-01T23:27:17.568Z,95218.30
2018-09-01T23:29:46.439Z,95217.53
2018-09-01T23:32:15.220Z,95216.27
2018-09-01T23:34:44.484Z,95213.99
2018-09-01T23:37:13.574Z,95216.13
2018-09-01T23:39:42.555Z,95209.09
2018-09-01T23:42:12.299Z,95217.58
2018-09-01T23:44:41.356Z,95219.52
2018-09-01T23:47:10.363Z,95209.78
2018-09-01T23:49:39.319Z,95216.55
2018-09-01T23:53:37.220Z,95221.08
2018-09-01T23:56:06.845Z,95222.42
2018-09-01T23:58:36.110Z,95215.35
